Peleus — V2FV2 — position and weather

sailwx.info

Track history (hours):
 
Tides and Currents Weather Stations Pressure Air Temp Water Temp Dewpoint Dewpoint Depression Visibility Wind Speed Wind Dir Waves Ship Positions

Peleus

Last reported at 2015-May-06 04:26 UTC. Time now 2015-May-06 12:28 UTC.
Position N 50°16' W 004°26'.

Length 88 m; draft 4.6 m.

Type: Cargo ship. MMSI: 305810000.

Date/timePositionNaut miles runAvg speedWind from/ knotsBaromVisibWave heightAir tempDewpointWater temp
2015-May-06 04:26N 50°16' W 004°26'32 6.5
2015-May-05 23:30N 50°10' W 003°37'6 6.0
2015-May-05 22:33N 50°13' W 003°30'7 6.6
2015-May-05 21:33N 50°20' W 003°26'7 6.7
2015-May-05 20:33N 50°26' W 003°23'6 5.9
2015-May-05 19:33N 50°31' W 003°27'3 0.2
2015-May-05 04:33N 50°33' W 003°30'0 0.0
2015-May-04 16:26N 50°33' W 003°30'1 0.1
2015-May-04 06:33N 50°32' W 003°29'9 8.7
2015-May-04 05:33N 50°32' W 003°16'1 1.2
2015-May-04 04:34N 50°31' W 003°15'7 6.8
2015-May-04 03:33N 50°24' W 003°16'8 7.5
2015-May-04 02:33N 50°17' W 003°23'8 6.7
2015-May-04 01:22N 50°11' W 003°31'113 8.2
2015-May-03 11:33N 48°51' W 005°33'15 7.6
2015-May-03 09:33N 48°38' W 005°46'  
Track history (hours):
 
Tides and Currents Weather Stations Pressure Air Temp Water Temp Dewpoint Dewpoint Depression Visibility Wind Speed Wind Dir Waves Ship Positions

Peleus

Last reported at 2015-May-06 04:26 UTC. Time now 2015-May-06 12:28 UTC.
Position N 50°16' W 004°26'.

Length 88 m; draft 4.6 m.

Type: Cargo ship. MMSI: 305810000.

Date/timePositionNaut miles runAvg speedWind from/ knotsBaromVisibWave heightAir tempDewpointWater temp
2015-May-06 04:26N 50°16' W 004°26'32 6.5
2015-May-05 23:30N 50°10' W 003°37'6 6.0
2015-May-05 22:33N 50°13' W 003°30'7 6.6
2015-May-05 21:33N 50°20' W 003°26'7 6.7
2015-May-05 20:33N 50°26' W 003°23'6 5.9
2015-May-05 19:33N 50°31' W 003°27'3 0.2
2015-May-05 04:33N 50°33' W 003°30'0 0.0
2015-May-04 16:26N 50°33' W 003°30'1 0.1
2015-May-04 06:33N 50°32' W 003°29'9 8.7
2015-May-04 05:33N 50°32' W 003°16'1 1.2
2015-May-04 04:34N 50°31' W 003°15'7 6.8
2015-May-04 03:33N 50°24' W 003°16'8 7.5
2015-May-04 02:33N 50°17' W 003°23'8 6.7
2015-May-04 01:22N 50°11' W 003°31'113 8.2
2015-May-03 11:33N 48°51' W 005°33'15 7.6
2015-May-03 09:33N 48°38' W 005°46'  

Dump ship's entire track history